Time;durP1;ratioP1;P1;durP2;ratioP2;P2;SDS_P1;SDS_P2;PMS_P1;PMS_P2;Temp;Humidity;BMP_temperature;BMP_pressure;BME280_temperature;BME280_humidity;BME280_pressure;Samples;Min_cycle;Max_cycle;Signal;HPM_P1;HPM_P2
2022/01/16 00:01:42;;;;;;;133.90;37.30;;;3.10;99.90;;;;;;4862879;29;20052;-90
2022/01/16 00:04:07;;;;;;;;;;;3.10;99.90;;;;;;4878596;29;20139;-89
2022/01/16 00:06:42;;;;;;;117.82;33.75;;;3.10;99.90;;;;;;4867061;29;20382;-89
2022/01/16 00:09:08;;;;;;;128.10;36.00;;;3.10;99.90;;;;;;4878875;29;20091;-90
2022/01/16 00:11:35;;;;;;;120.82;34.75;;;3.10;99.90;;;;;;4878003;29;20087;-89
2022/01/16 00:14:02;;;;;;;121.97;35.38;;;3.10;99.90;;;;;;4862648;29;20142;-88
2022/01/16 00:16:28;;;;;;;126.45;36.33;;;3.10;99.90;;;;;;4863463;29;20044;-89
2022/01/16 00:18:53;;;;;;;117.82;35.08;;;3.10;99.90;;;;;;4862868;29;20068;-89
2022/01/16 00:21:32;;;;;;;111.43;34.67;;;3.10;99.90;;;;;;4863445;29;20049;-90
2022/01/16 00:23:59;;;;;;;110.25;33.40;;;3.20;99.90;;;;;;4862989;29;20554;-89
2022/01/16 00:26:25;;;;;;;122.40;38.90;;;3.10;99.90;;;;;;4862957;29;20049;-90
2022/01/16 00:28:52;;;;;;;125.28;36.03;;;3.00;99.90;;;;;;4861960;29;20051;-89
2022/01/16 00:31:19;;;;;;;123.50;36.28;;;2.90;99.90;;;;;;4862988;29;20067;-89
2022/01/16 00:33:45;;;;;;;111.85;36.33;;;2.90;99.90;;;;;;4862771;29;20052;-89
2022/01/16 00:36:14;;;;;;;109.40;32.78;;;2.90;99.90;;;;;;4863167;29;20045;-89
2022/01/16 00:38:43;;;;;;;105.45;31.00;;;3.00;99.90;;;;;;4862419;29;20059;-90
2022/01/16 00:41:08;;;;;;;111.30;32.92;;;3.10;99.90;;;;;;4862733;29;20044;-89
2022/01/16 00:43:34;;;;;;;108.07;32.92;;;3.00;99.90;;;;;;4862416;29;20045;-90
2022/01/16 00:46:00;;;;;;;104.55;31.05;;;2.90;99.90;;;;;;4862703;29;20072;-89
2022/01/16 00:48:25;;;;;;;109.35;32.65;;;2.80;99.90;;;;;;4862666;29;20072;-90
2022/01/16 00:50:51;;;;;;;108.47;33.47;;;2.80;99.90;;;;;;4862535;29;20052;-90
2022/01/16 00:53:17;;;;;;;107.97;33.00;;;2.80;99.90;;;;;;4859384;29;20445;-89
2022/01/16 00:55:42;;;;;;;122.55;35.47;;;2.80;99.90;;;;;;4843814;29;20045;-90
2022/01/16 00:58:08;;;;;;;115.82;32.30;;;2.80;99.90;;;;;;4861269;29;20052;-90
2022/01/16 01:00:33;;;;;;;118.80;34.58;;;2.70;99.90;;;;;;4852533;29;20051;-90
2022/01/16 01:03:00;;;;;;;116.40;34.30;;;2.70;99.90;;;;;;4847409;29;20119;-89
2022/01/16 01:05:26;;;;;;;127.00;35.75;;;2.60;99.90;;;;;;4862151;29;20041;-90
2022/01/16 01:07:52;;;;;;;128.13;35.70;;;2.60;99.90;;;;;;4862038;29;20162;-89
2022/01/16 01:10:18;;;;;;;119.57;33.90;;;2.60;99.90;;;;;;4877474;29;20044;-90
2022/01/16 01:12:56;;;;;;;125.07;34.70;;;2.60;99.90;;;;;;4870140;29;20107;-90
2022/01/16 01:15:29;;;;;;;129.98;33.33;;;2.60;99.90;;;;;;4862268;29;20044;-90
2022/01/16 01:17:55;;;;;;;;;;;2.60;99.90;;;;;;4862408;29;20411;-90
2022/01/16 01:20:23;;;;;;;139.73;36.03;;;2.70;99.90;;;;;;4862346;29;20010;-90
2022/01/16 01:22:50;;;;;;;130.40;36.47;;;2.70;99.90;;;;;;4877153;29;20056;-90
2022/01/16 01:25:17;;;;;;;151.48;40.53;;;2.70;99.90;;;;;;4861949;29;20435;-89
2022/01/16 01:27:44;;;;;;;153.68;38.58;;;2.80;99.90;;;;;;4861513;29;20051;-90
2022/01/16 01:30:16;;;;;;;143.15;38.08;;;2.80;99.90;;;;;;4877167;29;20053;-90
2022/01/16 01:32:43;;;;;;;144.70;41.45;;;2.70;99.90;;;;;;4876962;29;20052;-89
2022/01/16 01:35:11;;;;;;;135.88;38.70;;;2.70;99.90;;;;;;4877153;29;20381;-89
2022/01/16 01:37:38;;;;;;;156.70;40.90;;;2.70;99.90;;;;;;4877194;29;20124;-91
2022/01/16 01:40:07;;;;;;;149.20;40.22;;;2.70;99.90;;;;;;4861322;29;20056;-90
2022/01/16 01:42:41;;;;;;;150.18;39.53;;;2.70;99.90;;;;;;4877053;29;20037;-90
2022/01/16 01:53:20;;;;;;;173.57;43.53;;;2.70;99.90;;;;;;4865934;29;20048;-89
2022/01/16 01:55:46;;;;;;;161.48;41.75;;;2.70;99.90;;;;;;4876148;29;20048;-89
2022/01/16 01:58:14;;;;;;;165.18;43.20;;;2.70;99.90;;;;;;4871263;29;20072;-89
2022/01/16 02:00:41;;;;;;;165.63;43.83;;;2.80;99.90;;;;;;4877093;29;20132;-90
2022/01/16 02:03:23;;;;;;;177.43;46.85;;;2.80;99.90;;;;;;4861708;29;20083;-91
2022/01/16 02:05:49;;;;;;;178.60;45.33;;;2.80;99.90;;;;;;4861164;29;20483;-90
2022/01/16 02:08:16;;;;;;;175.27;44.60;;;2.70;99.90;;;;;;4860940;29;20053;-89
2022/01/16 02:10:42;;;;;;;167.23;44.72;;;2.70;99.90;;;;;;4860930;29;20052;-89
2022/01/16 02:13:11;;;;;;;189.80;49.28;;;2.60;99.90;;;;;;4869500;29;20047;-89
2022/01/16 02:34:41;;;;;;;199.40;44.80;;;2.30;99.90;;;;;;4823546;29;20665;-89
2022/01/16 02:37:13;;;;;;;183.25;46.08;;;2.10;99.90;;;;;;4808735;29;20066;-88
2022/01/16 02:39:42;;;;;;;205.48;48.00;;;2.10;99.90;;;;;;4823687;29;20053;-90
2022/01/16 02:42:10;;;;;;;198.25;45.33;;;2.10;99.90;;;;;;4809008;29;20519;-89
2022/01/16 02:44:46;;;;;;;216.10;44.35;;;2.10;99.90;;;;;;4838668;29;20068;-89
2022/01/16 02:47:17;;;;;;;243.00;48.05;;;2.20;99.90;;;;;;4838970;29;20052;-89
2022/01/16 02:49:44;;;;;;;217.43;46.97;;;2.00;99.90;;;;;;4823181;29;20058;-89
2022/01/16 02:52:12;;;;;;;222.90;48.72;;;2.00;99.90;;;;;;4838658;29;20046;-89
2022/01/16 02:54:40;;;;;;;247.38;49.13;;;2.00;99.90;;;;;;4837721;29;20057;-89
2022/01/16 02:57:08;;;;;;;270.10;50.67;;;1.90;99.90;;;;;;4848529;29;20519;-88
2022/01/16 02:59:35;;;;;;;306.83;50.50;;;1.90;99.90;;;;;;4891722;29;20088;-90
2022/01/16 03:02:03;;;;;;;307.08;52.90;;;1.90;99.90;;;;;;4859320;29;20063;-89
2022/01/16 03:04:29;;;;;;;274.95;53.08;;;1.80;99.90;;;;;;4863090;29;20487;-89
2022/01/16 03:06:57;;;;;;;263.08;47.15;;;1.90;99.90;;;;;;4863603;29;20044;-90
2022/01/16 03:09:25;;;;;;;307.38;48.95;;;2.00;99.90;;;;;;4867124;29;20495;-89
2022/01/16 03:11:51;;;;;;;250.05;44.33;;;2.00;99.90;;;;;;4873304;29;20076;-88
2022/01/16 03:14:19;;;;;;;281.40;48.88;;;2.00;99.90;;;;;;4864051;29;20083;-89
2022/01/16 03:16:50;;;;;;;319.02;50.83;;;1.90;99.90;;;;;;4863967;29;20535;-88
2022/01/16 03:22:04;;;;;;;285.92;49.63;;;2.10;99.90;;;;;;4878548;29;20586;-89
2022/01/16 03:24:31;;;;;;;266.23;47.50;;;2.10;99.90;;;;;;4863430;29;20052;-89
2022/01/16 03:27:00;;;;;;;257.23;50.05;;;2.10;99.90;;;;;;4863148;29;20079;-90
2022/01/16 03:29:27;;;;;;;298.98;51.65;;;2.20;99.90;;;;;;4847928;29;20093;-88
2022/01/16 03:31:53;;;;;;;263.30;50.90;;;2.20;99.90;;;;;;4856781;29;20144;-89
2022/01/16 03:34:18;;;;;;;231.77;48.97;;;2.20;99.90;;;;;;4863822;29;20071;-88
2022/01/16 03:36:44;;;;;;;242.20;46.28;;;2.20;99.90;;;;;;4844736;29;20492;-88
2022/01/16 03:39:10;;;;;;;243.27;50.70;;;2.20;99.90;;;;;;4865904;29;20096;-89
2022/01/16 03:41:37;;;;;;;239.25;48.22;;;2.20;99.90;;;;;;4862997;29;20057;-91
2022/01/16 03:44:04;;;;;;;233.98;48.20;;;2.30;99.90;;;;;;4862591;29;20033;-89
2022/01/16 03:46:36;;;;;;;227.27;47.25;;;2.30;99.90;;;;;;4863615;29;20096;-88
2022/01/16 03:49:13;;;;;;;265.45;50.08;;;2.40;99.90;;;;;;4863028;29;20044;-89
2022/01/16 03:51:41;;;;;;;241.35;46.42;;;2.30;99.90;;;;;;4862801;29;20056;-88
2022/01/16 03:54:10;;;;;;;226.63;45.78;;;2.30;99.90;;;;;;4861693;29;20135;-88
2022/01/16 03:56:36;;;;;;;237.70;46.05;;;2.30;99.90;;;;;;4844713;29;20504;-88
2022/01/16 03:59:02;;;;;;;256.92;46.75;;;2.40;99.90;;;;;;4860444;29;20045;-89
2022/01/16 04:01:28;;;;;;;230.57;47.50;;;2.20;99.90;;;;;;4863187;29;20084;-89
2022/01/16 04:03:54;;;;;;;277.60;50.22;;;2.40;99.90;;;;;;4862812;29;20116;-88
2022/01/16 04:06:21;;;;;;;215.60;45.58;;;2.40;99.90;;;;;;4861861;29;20052;-88
2022/01/16 04:08:51;;;;;;;242.85;46.20;;;2.40;99.90;;;;;;4862207;29;20056;-88
2022/01/16 04:11:17;;;;;;;206.35;43.58;;;2.30;99.90;;;;;;4864623;29;20419;-89
2022/01/16 04:13:55;;;;;;;219.18;45.55;;;2.40;99.90;;;;;;4871737;29;20049;-89
2022/01/16 04:16:23;;;;;;;218.93;46.05;;;2.40;99.90;;;;;;4861836;29;20036;-89
2022/01/16 04:18:51;;;;;;;221.43;46.42;;;2.50;99.90;;;;;;4861877;29;20071;-88
2022/01/16 04:21:22;;;;;;;246.15;48.05;;;2.40;99.90;;;;;;4861938;29;20044;-88
2022/01/16 04:23:48;;;;;;;292.05;52.17;;;2.50;99.90;;;;;;4862164;29;20044;-88
2022/01/16 04:26:15;;;;;;;231.50;45.10;;;2.40;99.90;;;;;;4862276;29;20044;-89
2022/01/16 04:28:41;;;;;;;218.88;44.78;;;2.50;99.90;;;;;;4850993;29;20133;-89
2022/01/16 04:31:08;;;;;;;206.43;44.05;;;2.50;99.90;;;;;;4848482;29;20131;-89
2022/01/16 04:33:34;;;;;;;254.57;46.83;;;2.50;99.90;;;;;;4862595;29;20496;-89
2022/01/16 04:36:00;;;;;;;230.95;48.35;;;2.60;99.90;;;;;;4846174;29;20072;-89
2022/01/16 04:38:26;;;;;;;238.52;48.90;;;2.60;99.90;;;;;;4851703;29;20443;-87
2022/01/16 04:43:48;;;;;;;240.20;48.38;;;2.70;99.90;;;;;;4877354;29;20049;-88
2022/01/16 04:46:15;;;;;;;218.30;47.50;;;2.70;99.90;;;;;;4878048;29;20056;-89
2022/01/16 04:48:41;;;;;;;247.98;49.15;;;2.60;99.90;;;;;;4858623;29;20049;-89
2022/01/16 04:51:06;;;;;;;220.45;47.13;;;2.70;99.90;;;;;;4889990;29;20181;-88
2022/01/16 04:53:32;;;;;;;236.40;48.17;;;2.80;99.90;;;;;;4893162;29;20504;-89
2022/01/16 04:55:58;;;;;;;235.05;46.00;;;2.80;99.90;;;;;;4862003;29;20048;-88
2022/01/16 04:58:23;;;;;;;238.07;48.50;;;2.70;99.90;;;;;;4861817;29;20416;-89
2022/01/16 05:00:49;;;;;;;236.38;48.88;;;2.80;99.90;;;;;;4861091;29;20045;-89
2022/01/16 05:03:14;;;;;;;239.95;47.58;;;2.80;99.90;;;;;;4861566;29;20044;-88
2022/01/16 05:05:40;;;;;;;227.60;49.35;;;2.80;99.90;;;;;;4876178;29;20047;-88
2022/01/16 05:08:05;;;;;;;272.73;51.85;;;2.80;99.90;;;;;;4861770;29;20056;-89
2022/01/16 05:10:32;;;;;;;206.90;46.17;;;2.70;99.90;;;;;;4860800;29;20411;-88
2022/01/16 05:13:15;;;;;;;220.43;47.80;;;2.80;99.90;;;;;;4861909;29;20387;-89
2022/01/16 05:18:25;;;;;;;;;;;2.90;99.90;;;;;;4877408;29;20052;-90
2022/01/16 05:20:50;;;;;;;229.75;48.13;;;2.80;99.90;;;;;;4860850;29;20398;-89
2022/01/16 05:23:16;;;;;;;239.23;50.20;;;2.80;99.90;;;;;;4862257;29;20056;-89
2022/01/16 05:25:41;;;;;;;213.32;49.13;;;2.80;99.90;;;;;;4860431;29;20045;-89
2022/01/16 05:28:07;;;;;;;233.25;50.15;;;2.90;99.90;;;;;;4861329;29;20036;-90
2022/01/16 05:30:32;;;;;;;244.65;50.50;;;2.90;99.90;;;;;;4861885;29;20049;-90
2022/01/16 05:32:58;;;;;;;264.60;51.08;;;2.80;99.90;;;;;;4861073;29;20076;-88
2022/01/16 05:35:23;;;;;;;221.00;48.33;;;2.70;99.90;;;;;;4860711;29;20056;-89
2022/01/16 05:37:49;;;;;;;232.70;47.53;;;2.90;99.90;;;;;;4860903;29;20041;-89
2022/01/16 05:40:14;;;;;;;222.32;50.03;;;2.90;99.90;;;;;;4861354;29;20080;-90
2022/01/16 05:42:40;;;;;;;250.50;50.30;;;3.00;99.90;;;;;;4861053;29;20051;-90
2022/01/16 05:45:06;;;;;;;220.60;48.33;;;3.00;99.90;;;;;;4860893;29;20063;-90
2022/01/16 05:47:32;;;;;;;247.23;51.40;;;2.90;99.90;;;;;;4876074;29;20166;-90
2022/01/16 05:49:57;;;;;;;221.63;48.40;;;2.90;99.90;;;;;;4878978;29;20044;-90
2022/01/16 05:52:23;;;;;;;217.57;49.05;;;3.00;99.90;;;;;;4864530;29;20041;-90
2022/01/16 05:54:48;;;;;;;206.77;48.03;;;3.00;99.90;;;;;;4848953;29;20108;-90
2022/01/16 05:57:14;;;;;;;211.10;44.97;;;3.10;99.90;;;;;;4865135;29;20043;-90
2022/01/16 05:59:39;;;;;;;214.75;49.80;;;3.20;99.90;;;;;;4880440;29;20048;-90
2022/01/16 06:02:05;;;;;;;189.95;44.85;;;3.10;99.90;;;;;;4854441;29;20052;-90
2022/01/16 06:04:31;;;;;;;202.80;45.85;;;3.20;99.90;;;;;;4858301;29;20068;-89
2022/01/16 06:06:56;;;;;;;213.95;47.13;;;3.30;99.90;;;;;;4875099;29;20072;-89
2022/01/16 06:09:22;;;;;;;199.23;46.50;;;3.30;99.90;;;;;;4880455;29;20060;-90
2022/01/16 06:11:48;;;;;;;211.45;49.50;;;3.30;99.90;;;;;;4860975;29;20091;-89
2022/01/16 06:14:13;;;;;;;220.43;51.50;;;3.30;99.90;;;;;;4871558;29;20088;-89
2022/01/16 06:16:39;;;;;;;229.55;49.13;;;3.30;99.90;;;;;;4861671;29;20040;-88
2022/01/16 06:19:04;;;;;;;201.38;45.20;;;3.40;99.90;;;;;;4864339;29;20112;-89
2022/01/16 06:21:30;;;;;;;191.88;45.05;;;3.40;99.90;;;;;;4860059;29;20041;-89
2022/01/16 06:23:56;;;;;;;218.02;49.70;;;3.40;99.90;;;;;;4860757;29;20056;-89
2022/01/16 06:26:21;;;;;;;229.45;46.88;;;3.40;99.90;;;;;;4879050;29;20522;-89
2022/01/16 06:28:47;;;;;;;221.70;48.50;;;3.50;99.90;;;;;;4856187;29;20611;-89
2022/01/16 06:31:12;;;;;;;214.27;48.00;;;3.50;99.90;;;;;;4874056;29;20040;-87
2022/01/16 06:33:38;;;;;;;203.70;46.38;;;3.40;99.90;;;;;;4861741;29;20146;-89
2022/01/16 06:36:05;;;;;;;223.95;50.22;;;3.50;99.90;;;;;;4864924;29;20041;-89
2022/01/16 06:38:31;;;;;;;210.05;46.33;;;3.50;99.90;;;;;;4864007;29;20510;-90
2022/01/16 06:40:56;;;;;;;202.95;45.00;;;3.40;99.90;;;;;;4854022;29;20068;-89
2022/01/16 06:43:22;;;;;;;217.23;48.88;;;3.50;99.90;;;;;;4860837;29;20507;-89
2022/01/16 06:45:47;;;;;;;221.02;50.72;;;3.50;99.90;;;;;;4858785;29;20044;-90
2022/01/16 06:48:13;;;;;;;228.98;50.55;;;3.50;99.90;;;;;;4856542;29;20072;-89
2022/01/16 06:50:39;;;;;;;235.77;50.67;;;3.50;99.90;;;;;;4860087;29;20041;-89
2022/01/16 06:53:04;;;;;;;202.43;47.33;;;3.50;99.90;;;;;;4853714;29;20041;-88
2022/01/16 06:55:30;;;;;;;235.50;49.70;;;3.60;99.90;;;;;;4887364;29;20403;-89
2022/01/16 06:57:55;;;;;;;203.10;48.45;;;3.50;99.90;;;;;;4873069;29;20416;-89
2022/01/16 07:00:21;;;;;;;212.70;46.47;;;3.50;99.90;;;;;;4857185;29;20197;-88
2022/01/16 07:02:46;;;;;;;204.48;49.08;;;3.60;99.90;;;;;;4860697;29;20044;-89
2022/01/16 07:05:12;;;;;;;218.98;47.55;;;3.70;99.90;;;;;;4860779;29;20045;-89
2022/01/16 07:07:37;;;;;;;211.68;48.28;;;3.60;99.90;;;;;;4861127;29;20064;-88
2022/01/16 07:10:03;;;;;;;206.95;49.45;;;3.70;99.90;;;;;;4862023;29;20052;-89
2022/01/16 07:12:29;;;;;;;209.52;50.00;;;3.70;99.90;;;;;;4861738;29;20044;-89
2022/01/16 07:14:55;;;;;;;192.18;46.80;;;3.70;99.90;;;;;;4860659;29;20052;-88
2022/01/16 07:17:20;;;;;;;209.63;50.50;;;3.80;99.90;;;;;;4861699;29;20033;-88
2022/01/16 07:19:46;;;;;;;207.85;49.58;;;3.80;99.90;;;;;;4861201;29;20089;-89
2022/01/16 07:22:11;;;;;;;221.52;50.15;;;3.80;99.90;;;;;;4861173;29;20399;-89
2022/01/16 07:24:37;;;;;;;205.77;47.97;;;3.80;99.90;;;;;;4861642;29;20067;-90
2022/01/16 07:27:03;;;;;;;210.57;49.90;;;3.80;99.90;;;;;;4859428;29;20041;-89
2022/01/16 07:29:29;;;;;;;214.43;50.78;;;3.90;99.90;;;;;;4864866;29;20134;-90
2022/01/16 07:31:56;;;;;;;201.93;48.58;;;3.90;99.90;;;;;;4862155;29;20048;-90
2022/01/16 07:34:22;;;;;;;211.02;50.25;;;3.90;99.90;;;;;;4858297;29;20052;-90
2022/01/16 07:36:47;;;;;;;204.30;51.35;;;3.80;99.90;;;;;;4857660;29;20044;-90
2022/01/16 07:39:13;;;;;;;223.00;53.20;;;3.80;99.90;;;;;;4860462;29;20240;-89
2022/01/16 07:41:39;;;;;;;201.05;49.83;;;3.80;99.90;;;;;;4862028;29;20052;-89
2022/01/16 07:44:04;;;;;;;206.15;50.00;;;3.90;99.90;;;;;;4862050;29;20083;-89
2022/01/16 07:46:30;;;;;;;213.30;54.85;;;3.90;99.90;;;;;;4878402;29;20044;-89
2022/01/16 07:48:56;;;;;;;207.63;51.55;;;3.90;99.90;;;;;;4862575;29;20041;-89
2022/01/16 07:51:22;;;;;;;219.55;53.08;;;3.90;99.90;;;;;;4861711;29;20455;-90
2022/01/16 07:53:47;;;;;;;203.20;47.88;;;3.90;99.90;;;;;;4862161;29;20516;-89
2022/01/16 07:56:13;;;;;;;197.88;50.22;;;3.90;99.90;;;;;;4878406;29;20072;-88
2022/01/16 07:58:39;;;;;;;209.88;49.85;;;4.00;99.90;;;;;;4860423;29;20132;-89
2022/01/16 08:01:04;;;;;;;195.68;48.60;;;4.00;99.90;;;;;;4862428;29;20040;-88
2022/01/16 08:03:30;;;;;;;203.68;50.80;;;4.20;99.90;;;;;;4868186;29;20061;-88
2022/01/16 08:05:55;;;;;;;191.38;46.38;;;4.10;99.90;;;;;;4864713;29;20049;-88
2022/01/16 08:08:21;;;;;;;220.77;52.53;;;4.30;99.90;;;;;;4858069;29;20056;-90
2022/01/16 08:10:47;;;;;;;186.40;45.45;;;4.30;99.90;;;;;;4873129;29;20056;-89
2022/01/16 08:13:12;;;;;;;197.65;52.10;;;4.40;99.90;;;;;;4861045;29;20044;-88
2022/01/16 08:15:38;;;;;;;199.30;51.13;;;4.40;99.90;;;;;;4859505;29;20055;-89
2022/01/16 08:18:03;;;;;;;196.30;52.35;;;4.40;99.90;;;;;;4859252;29;20037;-89
2022/01/16 08:20:32;;;;;;;200.73;53.00;;;4.40;99.90;;;;;;4862020;29;20096;-89
2022/01/16 08:22:57;;;;;;;194.27;51.58;;;4.40;99.90;;;;;;4858475;29;20072;-89
2022/01/16 08:25:25;;;;;;;198.35;51.08;;;4.40;99.90;;;;;;4872952;29;20151;-89
2022/01/16 08:27:50;;;;;;;200.35;50.83;;;4.40;99.90;;;;;;4859617;29;20288;-89
2022/01/16 08:30:16;;;;;;;210.05;54.45;;;4.40;99.90;;;;;;4875661;29;20044;-89
2022/01/16 08:32:43;;;;;;;181.07;49.28;;;4.40;99.90;;;;;;4878179;29;20044;-89
2022/01/16 08:35:10;;;;;;;190.75;51.90;;;4.50;99.90;;;;;;4859743;29;20045;-87
2022/01/16 08:37:36;;;;;;;169.00;46.00;;;4.50;99.90;;;;;;4875618;29;20048;-86
2022/01/16 08:40:03;;;;;;;175.75;48.58;;;4.60;99.90;;;;;;4860013;29;20040;-85
2022/01/16 08:42:29;;;;;;;178.43;50.55;;;4.60;99.90;;;;;;4859584;29;20496;-85
2022/01/16 08:44:55;;;;;;;185.85;51.97;;;4.60;99.90;;;;;;4853290;29;20052;-85
2022/01/16 08:47:20;;;;;;;174.90;50.28;;;4.50;99.90;;;;;;4860663;29;20041;-85
2022/01/16 08:49:46;;;;;;;195.80;73.05;;;4.60;99.90;;;;;;4850685;29;20472;-87
2022/01/16 08:52:12;;;;;;;167.35;49.88;;;4.60;99.90;;;;;;4857894;29;20384;-86
2022/01/16 08:54:37;;;;;;;160.40;47.33;;;4.60;99.90;;;;;;4866869;29;20347;-87
2022/01/16 08:57:03;;;;;;;175.20;48.88;;;4.60;99.90;;;;;;4873635;29;20411;-86
2022/01/16 08:59:29;;;;;;;159.93;47.85;;;4.60;99.90;;;;;;4855777;29;20051;-87
2022/01/16 09:01:55;;;;;;;168.88;50.05;;;4.60;99.90;;;;;;4859672;29;20052;-87
2022/01/16 09:04:20;;;;;;;165.50;51.20;;;4.60;99.90;;;;;;4860091;29;20037;-86
2022/01/16 09:06:46;;;;;;;170.15;48.50;;;4.70;99.90;;;;;;4859924;29;20040;-86
2022/01/16 09:09:12;;;;;;;164.98;48.83;;;4.70;99.90;;;;;;4868454;29;20051;-86
2022/01/16 09:11:37;;;;;;;154.13;45.78;;;4.90;99.90;;;;;;4859413;29;20055;-86
2022/01/16 09:14:03;;;;;;;149.93;47.75;;;5.00;99.90;;;;;;4854946;29;20041;-86
2022/01/16 09:16:30;;;;;;;153.15;49.42;;;5.00;99.90;;;;;;4855625;29;20040;-86
2022/01/16 09:18:56;;;;;;;157.73;49.45;;;5.00;99.90;;;;;;4857239;29;20046;-86
2022/01/16 09:21:21;;;;;;;148.98;48.63;;;5.00;99.90;;;;;;4859353;29;20044;-86
2022/01/16 09:23:49;;;;;;;152.40;47.80;;;5.20;99.90;;;;;;4857387;29;20162;-86
2022/01/16 09:26:17;;;;;;;143.05;47.40;;;5.20;99.90;;;;;;4876272;29;20045;-87
2022/01/16 09:28:43;;;;;;;152.48;53.42;;;5.30;99.90;;;;;;4856481;29;20056;-87
2022/01/16 09:31:09;;;;;;;143.05;48.83;;;5.40;99.90;;;;;;4866623;29;20045;-86
2022/01/16 09:33:35;;;;;;;146.63;48.70;;;5.40;99.90;;;;;;4859849;29;20411;-86
2022/01/16 09:36:03;;;;;;;148.98;48.30;;;5.40;99.90;;;;;;4857206;29;20136;-86
2022/01/16 09:38:28;;;;;;;148.63;47.35;;;5.50;99.90;;;;;;4871246;29;20052;-87
2022/01/16 09:40:55;;;;;;;125.95;44.92;;;5.50;99.90;;;;;;4872030;29;20045;-86
2022/01/16 09:43:21;;;;;;;138.15;46.00;;;5.60;99.90;;;;;;4875605;29;20118;-87
2022/01/16 09:45:48;;;;;;;117.25;44.00;;;5.60;99.90;;;;;;4859895;29;20064;-86
2022/01/16 09:48:15;;;;;;;123.20;43.22;;;5.60;99.90;;;;;;4859415;29;20059;-87
2022/01/16 09:50:41;;;;;;;140.02;46.05;;;5.70;99.90;;;;;;4871952;29;20541;-86
2022/01/16 09:53:07;;;;;;;118.88;44.17;;;5.60;99.90;;;;;;4860264;29;20040;-86
2022/01/16 09:55:32;;;;;;;132.63;46.72;;;5.70;99.90;;;;;;4856887;29;20049;-86
2022/01/16 09:57:59;;;;;;;124.82;45.25;;;5.70;99.90;;;;;;4872936;29;20048;-86
2022/01/16 10:00:25;;;;;;;126.05;43.95;;;5.60;99.90;;;;;;4875512;29;20040;-86
2022/01/16 10:02:52;;;;;;;124.18;45.00;;;5.70;99.90;;;;;;4874890;29;20044;-86
2022/01/16 10:05:22;;;;;;;117.40;44.65;;;5.70;99.90;;;;;;4859990;29;20041;-86
2022/01/16 10:07:48;;;;;;;123.50;44.35;;;5.80;99.90;;;;;;4859616;29;20052;-86
2022/01/16 10:10:14;;;;;;;119.60;44.17;;;5.90;99.90;;;;;;4863353;29;20055;-86
2022/01/16 10:12:46;;;;;;;113.50;43.47;;;5.90;99.90;;;;;;4857359;29;20080;-86
2022/01/16 10:15:28;;;;;;;115.72;42.15;;;5.90;99.90;;;;;;4856297;29;20037;-86
2022/01/16 10:17:57;;;;;;;106.57;40.25;;;5.90;99.90;;;;;;4859876;29;20044;-87
2022/01/16 10:20:24;;;;;;;117.43;40.60;;;5.90;99.90;;;;;;4873582;29;20439;-87
2022/01/16 10:22:52;;;;;;;105.28;41.55;;;6.00;99.90;;;;;;4857133;29;20139;-87
2022/01/16 10:25:38;;;;;;;117.30;42.08;;;6.00;99.90;;;;;;4860319;29;20244;-87
2022/01/16 10:28:17;;;;;;;103.18;38.97;;;6.00;99.90;;;;;;4860079;29;20096;-87
2022/01/16 10:30:45;;;;;;;102.88;41.20;;;6.00;99.90;;;;;;4859166;29;20143;-86
2022/01/16 10:33:22;;;;;;;104.93;38.95;;;6.00;99.90;;;;;;4860327;29;20040;-87
2022/01/16 10:35:50;;;;;;;102.93;39.95;;;6.00;99.90;;;;;;4858666;29;20082;-86
2022/01/16 10:38:22;;;;;;;93.93;37.10;;;5.90;99.90;;;;;;4877816;29;20546;-87
2022/01/16 10:40:50;;;;;;;91.60;34.72;;;6.00;99.90;;;;;;4850395;29;20049;-87
2022/01/16 10:43:35;;;;;;;90.10;37.58;;;6.10;99.90;;;;;;4869178;29;20486;-87
2022/01/16 10:46:01;;;;;;;87.28;36.75;;;6.10;99.90;;;;;;4862376;29;20060;-87
2022/01/16 10:48:27;;;;;;;92.60;35.50;;;6.10;99.90;;;;;;4863871;29;20422;-86
2022/01/16 10:50:53;;;;;;;89.32;36.78;;;6.10;99.90;;;;;;4858622;29;20136;-87
2022/01/16 10:53:24;;;;;;;82.63;35.20;;;6.10;99.90;;;;;;4860412;29;20092;-86
2022/01/16 10:55:52;;;;;;;79.03;35.65;;;6.20;99.90;;;;;;4862243;29;20041;-86
2022/01/16 10:58:25;;;;;;;87.93;34.53;;;6.20;99.90;;;;;;4861465;29;20044;-86
2022/01/16 11:01:00;;;;;;;82.07;31.55;;;6.20;99.90;;;;;;4855394;29;20033;-86
2022/01/16 11:03:28;;;;;;;77.80;33.92;;;6.30;99.90;;;;;;4862648;29;20052;-85
2022/01/16 11:05:55;;;;;;;77.93;31.00;;;6.30;99.90;;;;;;4877609;29;20051;-87
2022/01/16 11:08:25;;;;;;;76.80;31.90;;;6.30;99.90;;;;;;4854932;29;20503;-87
2022/01/16 11:10:56;;;;;;;80.82;31.60;;;6.30;99.90;;;;;;4849952;29;20045;-87
2022/01/16 11:13:24;;;;;;;72.38;29.90;;;6.30;99.90;;;;;;4871432;29;20046;-87
2022/01/16 11:15:52;;;;;;;67.70;28.08;;;6.40;99.90;;;;;;4856478;29;20053;-87
2022/01/16 11:18:20;;;;;;;64.88;26.77;;;6.40;99.90;;;;;;4872951;29;20045;-87
2022/01/16 11:26:04;;;;;;;63.63;25.42;;;6.30;99.90;;;;;;4889508;29;20108;-87
2022/01/16 11:28:30;;;;;;;62.70;25.30;;;6.40;99.90;;;;;;4837086;29;20520;-87
2022/01/16 11:30:59;;;;;;;60.65;25.80;;;6.40;99.90;;;;;;4851904;29;20156;-87
2022/01/16 11:33:27;;;;;;;58.20;24.80;;;6.40;99.90;;;;;;4844652;29;20552;-87
2022/01/16 11:36:00;;;;;;;57.20;22.65;;;6.50;99.90;;;;;;4855405;29;20476;-86
2022/01/16 11:38:31;;;;;;;45.30;22.53;;;6.50;99.90;;;;;;4883246;29;20436;-87
2022/01/16 11:41:11;;;;;;;57.25;22.70;;;6.50;99.90;;;;;;4859191;29;20037;-87
2022/01/16 11:43:37;;;;;;;56.22;20.88;;;6.50;99.90;;;;;;4860245;29;20064;-87
2022/01/16 11:46:12;;;;;;;47.65;21.20;;;6.50;99.90;;;;;;4859378;29;20147;-87
2022/01/16 11:48:58;;;;;;;47.97;22.30;;;6.50;99.90;;;;;;4851996;29;20060;-87
2022/01/16 11:51:33;;;;;;;47.00;20.52;;;6.40;99.90;;;;;;4844987;29;20290;-87
2022/01/16 11:54:01;;;;;;;44.10;20.42;;;6.50;99.90;;;;;;4854077;29;20439;-87
2022/01/16 11:56:39;;;;;;;41.00;20.08;;;6.40;99.90;;;;;;4850852;29;20048;-86
2022/01/16 11:59:18;;;;;;;43.97;18.15;;;6.40;99.90;;;;;;4853498;29;20503;-87
2022/01/16 12:01:46;;;;;;;37.72;17.65;;;6.50;99.90;;;;;;4835770;29;20049;-87
2022/01/16 12:04:30;;;;;;;40.10;17.63;;;6.50;99.90;;;;;;4858802;29;20037;-86
2022/01/16 12:07:02;;;;;;;37.72;16.35;;;6.50;99.90;;;;;;4868965;29;20041;-87
2022/01/16 12:09:39;;;;;;;39.73;16.73;;;6.70;99.90;;;;;;4877021;29;20119;-87
2022/01/16 12:12:14;;;;;;;31.80;14.40;;;6.70;99.90;;;;;;4885843;29;20087;-87
2022/01/16 12:15:01;;;;;;;39.72;16.08;;;6.60;99.90;;;;;;4877987;29;20428;-87
2022/01/16 12:17:44;;;;;;;31.77;15.85;;;6.60;99.90;;;;;;4856429;29;20049;-87
2022/01/16 12:20:17;;;;;;;36.65;16.00;;;6.60;99.90;;;;;;4871315;29;20052;-88
2022/01/16 12:22:56;;;;;;;38.03;15.37;;;6.70;99.90;;;;;;4874432;29;20092;-87
2022/01/16 12:25:22;;;;;;;34.05;15.13;;;6.70;99.90;;;;;;4883587;29;20132;-87
2022/01/16 12:27:53;;;;;;;30.98;14.15;;;6.70;99.90;;;;;;4859125;29;20461;-87
2022/01/16 12:30:33;;;;;;;27.08;13.57;;;6.90;99.90;;;;;;4870122;29;20051;-87
2022/01/16 12:33:11;;;;;;;30.25;14.40;;;6.90;99.90;;;;;;4861210;29;20037;-87
2022/01/16 12:35:48;;;;;;;32.00;14.52;;;6.90;99.90;;;;;;4872508;29;20049;-87
2022/01/16 12:38:19;;;;;;;28.02;12.90;;;6.80;99.90;;;;;;4859225;29;20067;-88
2022/01/16 12:40:47;;;;;;;27.10;13.75;;;6.90;99.90;;;;;;4862058;29;20110;-87
2022/01/16 12:43:40;;;;;;;37.10;16.40;;;6.80;99.90;;;;;;4859380;29;20531;-88
2022/01/16 12:46:10;;;;;;;25.13;13.52;;;6.90;99.90;;;;;;4858567;29;20045;-87
2022/01/16 12:48:44;;;;;;;33.58;14.77;;;6.90;99.90;;;;;;4869516;29;20045;-87
2022/01/16 12:51:11;;;;;;;31.27;14.65;;;6.90;99.90;;;;;;4858690;29;20405;-88
2022/01/16 12:53:49;;;;;;;26.08;14.57;;;6.80;99.90;;;;;;4892771;29;20050;-88
2022/01/16 12:56:37;;;;;;;32.83;14.43;;;6.90;99.90;;;;;;4861779;29;20052;-87
2022/01/16 12:59:09;;;;;;;34.83;15.18;;;7.00;99.90;;;;;;4873420;29;20049;-88
2022/01/16 13:01:35;;;;;;;37.40;16.88;;;6.90;99.90;;;;;;4860136;29;20051;-87
2022/01/16 13:04:01;;;;;;;28.70;14.93;;;7.00;99.90;;;;;;4850192;29;20403;-88
2022/01/16 13:06:29;;;;;;;26.20;14.63;;;6.90;99.90;;;;;;4857949;29;20052;-87
2022/01/16 13:08:58;;;;;;;27.70;14.68;;;7.00;99.90;;;;;;4858184;29;20048;-88
2022/01/16 13:11:35;;;;;;;34.22;14.68;;;7.00;99.90;;;;;;4857201;29;20567;-88
2022/01/16 13:14:03;;;;;;;33.13;14.40;;;7.00;99.90;;;;;;4850806;29;20516;-87
2022/01/16 13:16:39;;;;;;;28.88;14.57;;;7.00;99.90;;;;;;4880863;29;20048;-88